Terminal Aerodrome Forecast
Issued by NWS

Home | Current Version | Previous Version | Graphics & Text | Print | Product List | Glossary On
Versions: 1 2 3 4 5 6 7 8 9 10 11 12
000
FTUS43 KGRB 171129
TAFATW
TAF
KATW 171129Z 1712/1812 22010KT P6SM SCT250 WS012/26030KT
     FM171400 23009KT P6SM SCT250
     FM172300 23005KT P6SM SCT250
     FM180600 21006KT P6SM SCT250 WS016/25030KT=

USA.gov is the U.S. government's official web portal to all federal, state and local government web resources and services.